createdAt,value
2022-08-18T00:01:19.300Z,21.79
2022-08-18T00:03:57.361Z,21.74
2022-08-18T00:06:29.945Z,21.59
2022-08-18T00:09:01.801Z,22.28
2022-08-18T00:11:41.335Z,22.28
2022-08-18T00:14:13.857Z,22.18
2022-08-18T00:16:49.766Z,22.21
2022-08-18T00:19:16.450Z,22.21
2022-08-18T00:21:43.128Z,22.17
2022-08-18T00:24:09.752Z,21.62
2022-08-18T00:26:37.182Z,21.99
2022-08-18T00:29:04.237Z,21.84
2022-08-18T00:31:31.652Z,22.14
2022-08-18T00:33:58.981Z,22.07
2022-08-18T00:36:26.153Z,22.19
2022-08-18T00:38:53.548Z,22.17
2022-08-18T00:41:21.089Z,22.13
2022-08-18T00:43:49.863Z,21.55
2022-08-18T00:46:23.764Z,21.49
2022-08-18T00:48:51.137Z,21.78
2022-08-18T00:51:25.101Z,21.96
2022-08-18T00:54:01.069Z,21.97
2022-08-18T00:56:35.801Z,21.75
2022-08-18T00:59:09.683Z,21.92
2022-08-18T01:01:38.017Z,21.79
2022-08-18T01:04:16.236Z,22.08
2022-08-18T01:06:51.891Z,22.10
2022-08-18T01:09:19.037Z,22.13
2022-08-18T01:11:46.280Z,21.62
2022-08-18T01:14:16.085Z,21.84
2022-08-18T01:17:02.013Z,21.96
2022-08-18T01:19:47.388Z,21.49
2022-08-18T01:22:19.921Z,22.00
2022-08-18T01:25:05.042Z,21.92
2022-08-18T01:27:32.224Z,21.91
2022-08-18T01:30:10.039Z,21.84
2022-08-18T01:32:38.685Z,21.92
2022-08-18T01:35:08.978Z,21.53
2022-08-18T01:37:37.108Z,21.76
2022-08-18T01:41:21.929Z,21.87
2022-08-18T01:42:56.911Z,22.01
2022-08-18T01:45:23.744Z,21.92
2022-08-18T01:47:50.722Z,21.51
2022-08-18T01:50:18.188Z,21.67
2022-08-18T01:52:45.460Z,21.95
2022-08-18T01:55:12.470Z,21.62
2022-08-18T01:57:44.967Z,21.96
2022-08-18T02:00:14.743Z,21.99
2022-08-18T02:02:42.444Z,21.57
2022-08-18T02:05:18.797Z,21.27
2022-08-18T02:07:45.754Z,21.35
2022-08-18T02:10:12.687Z,20.90
2022-08-18T02:12:43.839Z,21.09
2022-08-18T02:15:12.040Z,21.19
2022-08-18T02:17:41.678Z,21.26
2022-08-18T02:20:10.617Z,21.17
2022-08-18T02:22:37.335Z,21.19
2022-08-18T02:25:06.855Z,21.25
2022-08-18T02:27:34.485Z,21.19
2022-08-18T02:30:04.130Z,20.46
2022-08-18T02:32:32.522Z,20.73
2022-08-18T02:34:59.359Z,20.77
2022-08-18T02:37:26.034Z,20.81
2022-08-18T02:39:52.752Z,21.01
2022-08-18T02:42:19.455Z,20.95
2022-08-18T02:44:46.138Z,21.11
2022-08-18T02:47:12.807Z,21.12
2022-08-18T02:49:39.473Z,20.94
2022-08-18T02:52:06.376Z,21.06
2022-08-18T02:54:33.206Z,20.65
2022-08-18T02:56:59.813Z,21.07
2022-08-18T02:59:27.910Z,21.14
2022-08-18T03:01:58.703Z,21.01
2022-08-18T03:04:30.276Z,20.80
2022-08-18T03:06:59.862Z,20.95
2022-08-18T03:09:27.761Z,21.00
2022-08-18T03:11:54.687Z,21.06
2022-08-18T03:14:21.737Z,21.10
2022-08-18T03:16:54.494Z,21.11
2022-08-18T03:19:26.132Z,20.99
2022-08-18T03:21:53.337Z,20.81
2022-08-18T03:24:22.948Z,20.98
2022-08-18T03:26:51.775Z,20.70
2022-08-18T03:29:18.793Z,20.85
2022-08-18T03:31:45.692Z,20.70
2022-08-18T03:34:12.950Z,20.60
2022-08-18T03:36:39.872Z,20.63
2022-08-18T03:39:09.867Z,20.59
2022-08-18T03:41:57.141Z,20.60
2022-08-18T03:44:26.463Z,20.61
2022-08-18T03:46:53.099Z,20.20
2022-08-18T03:49:21.031Z,20.28
2022-08-18T03:51:48.749Z,19.96
2022-08-18T03:54:17.764Z,20.15
2022-08-18T03:56:46.321Z,20.41
2022-08-18T03:59:24.118Z,20.20
2022-08-18T04:01:52.521Z,20.34
2022-08-18T04:04:25.445Z,20.67
2022-08-18T04:07:05.799Z,20.68
2022-08-18T04:09:33.696Z,20.81
2022-08-18T04:12:16.850Z,20.72
2022-08-18T04:14:48.034Z,20.86
2022-08-18T04:17:15.097Z,20.95
2022-08-18T04:19:42.907Z,21.01
2022-08-18T04:22:09.604Z,20.89
2022-08-18T04:24:44.601Z,21.05
2022-08-18T04:27:12.647Z,21.04
2022-08-18T04:29:39.389Z,21.20
2022-08-18T04:32:06.267Z,21.35
2022-08-18T04:34:34.096Z,21.37
2022-08-18T04:37:02.220Z,21.46
2022-08-18T04:39:30.042Z,21.31
2022-08-18T04:41:56.840Z,21.65
2022-08-18T04:44:23.491Z,21.67
2022-08-18T04:46:52.935Z,21.53
2022-08-18T04:49:24.083Z,21.88
2022-08-18T04:52:37.212Z,22.13
2022-08-18T04:54:57.266Z,22.33
2022-08-18T04:57:24.128Z,22.40
2022-08-18T04:59:52.463Z,22.40
2022-08-18T05:02:21.306Z,22.60
2022-08-18T05:04:48.204Z,22.93
2022-08-18T05:07:20.037Z,23.03
2022-08-18T05:09:47.273Z,23.27
2022-08-18T05:12:15.597Z,23.44
2022-08-18T05:14:44.777Z,23.44
2022-08-18T05:17:12.574Z,23.70
2022-08-18T05:19:44.146Z,23.82
2022-08-18T05:22:13.892Z,23.82
2022-08-18T05:24:41.176Z,24.19
2022-08-18T05:27:07.852Z,24.37
2022-08-18T05:29:45.822Z,24.46
2022-08-18T05:32:41.138Z,24.65
2022-08-18T05:35:15.428Z,24.76
2022-08-18T05:38:02.279Z,25.10
2022-08-18T05:40:29.531Z,25.31
2022-08-18T05:42:58.481Z,25.49
2022-08-18T05:45:26.340Z,25.49
2022-08-18T05:48:00.213Z,25.97
2022-08-18T05:50:29.072Z,25.97
2022-08-18T05:53:00.108Z,26.18
2022-08-18T05:55:47.986Z,26.31
2022-08-18T05:58:22.166Z,26.47
2022-08-18T06:00:59.651Z,26.60
2022-08-18T06:03:45.186Z,26.83
2022-08-18T06:06:18.503Z,26.89
2022-08-18T06:09:10.896Z,27.27
2022-08-18T06:11:37.687Z,27.43
2022-08-18T06:14:04.877Z,27.76
2022-08-18T06:16:31.476Z,27.99
2022-08-18T06:19:30.698Z,28.20
2022-08-18T06:22:16.386Z,28.44
2022-08-18T06:25:11.042Z,28.65
2022-08-18T06:27:51.190Z,28.83
2022-08-18T06:30:27.389Z,29.02
2022-08-18T06:32:54.083Z,29.22
2022-08-18T06:35:48.484Z,29.48
2022-08-18T06:38:36.803Z,29.47
2022-08-18T06:41:09.443Z,29.52
2022-08-18T06:44:09.294Z,29.69
2022-08-18T06:46:43.996Z,29.74
2022-08-18T06:49:17.671Z,29.39
2022-08-18T06:51:44.276Z,29.48
2022-08-18T06:54:20.027Z,29.99
2022-08-18T06:56:50.101Z,30.24
2022-08-18T06:59:38.075Z,30.36
2022-08-18T07:02:38.708Z,30.51
2022-08-18T07:05:20.884Z,30.65
2022-08-18T07:08:01.493Z,30.76
2022-08-18T07:10:37.407Z,30.83
2022-08-18T07:13:30.123Z,30.78
2022-08-18T07:16:40.258Z,30.92
2022-08-18T07:19:12.897Z,31.07
2022-08-18T07:21:42.989Z,31.13
2022-08-18T07:24:25.258Z,31.24
2022-08-18T07:27:05.124Z,31.21
2022-08-18T07:29:35.602Z,31.42
2022-08-18T07:32:20.775Z,31.65
2022-08-18T07:34:53.818Z,31.49
2022-08-18T07:37:32.482Z,31.77
2022-08-18T07:40:06.077Z,31.97
2022-08-18T07:43:01.933Z,32.06
2022-08-18T07:45:38.040Z,32.14
2022-08-18T07:48:41.054Z,32.00
2022-08-18T07:51:24.576Z,31.88
2022-08-18T07:54:04.982Z,31.39
2022-08-18T07:56:43.715Z,31.45
2022-08-18T07:59:13.550Z,31.84
2022-08-18T08:02:17.935Z,32.18
2022-08-18T08:04:56.337Z,32.47
2022-08-18T08:07:45.565Z,31.99
2022-08-18T08:10:34.129Z,32.66
2022-08-18T08:13:37.300Z,32.69
2022-08-18T08:16:36.168Z,32.49
2022-08-18T08:19:56.660Z,32.60
2022-08-18T08:22:31.568Z,32.22
2022-08-18T08:25:45.365Z,32.42
2022-08-18T08:28:52.469Z,32.54
2022-08-18T08:31:49.576Z,32.66
2022-08-18T08:34:22.308Z,32.73
2022-08-18T08:36:54.545Z,32.85
2022-08-18T08:39:45.350Z,33.11
2022-08-18T08:42:29.697Z,33.37
2022-08-18T08:45:07.323Z,33.46
2022-08-18T08:47:50.119Z,33.47
2022-08-18T08:50:21.836Z,33.38
2022-08-18T08:53:01.246Z,32.95
2022-08-18T08:55:41.755Z,32.59
2022-08-18T08:58:08.389Z,32.57
2022-08-18T09:00:37.179Z,32.35
2022-08-18T09:03:30.070Z,32.85
2022-08-18T09:06:00.239Z,32.43
2022-08-18T09:08:37.222Z,32.72
2022-08-18T09:11:19.129Z,32.65
2022-08-18T09:14:14.980Z,32.47
2022-08-18T09:16:41.577Z,32.29
2022-08-18T09:19:17.235Z,32.28
2022-08-18T09:21:51.270Z,32.34
2022-08-18T09:24:26.396Z,32.70
2022-08-18T09:27:13.869Z,32.73
2022-08-18T09:29:49.606Z,32.99
2022-08-18T09:32:19.207Z,32.71
2022-08-18T09:34:56.749Z,32.88
2022-08-18T09:37:28.562Z,32.79
2022-08-18T09:40:33.402Z,33.21
2022-08-18T09:43:20.202Z,32.88
2022-08-18T09:45:47.110Z,32.46
2022-08-18T09:48:20.652Z,32.72
2022-08-18T09:50:57.988Z,32.95
2022-08-18T09:54:13.360Z,33.09
2022-08-18T09:57:16.574Z,33.23
2022-08-18T09:59:47.703Z,33.38
2022-08-18T10:02:32.150Z,33.39
2022-08-18T10:05:20.318Z,33.83
2022-08-18T10:08:06.211Z,33.47
2022-08-18T10:11:01.348Z,34.06
2022-08-18T10:13:39.141Z,34.34
2022-08-18T10:17:13.308Z,34.03
2022-08-18T10:19:52.718Z,34.22
2022-08-18T10:22:43.673Z,33.78
2022-08-18T10:25:22.971Z,34.08
2022-08-18T10:27:54.988Z,34.04
2022-08-18T10:30:56.801Z,34.40
2022-08-18T10:34:00.494Z,34.20
2022-08-18T10:36:33.426Z,34.54
2022-08-18T10:39:06.337Z,34.82
2022-08-18T10:41:34.536Z,34.42
2022-08-18T10:46:51.577Z,33.73
2022-08-18T10:49:26.114Z,34.25
2022-08-18T10:52:14.095Z,34.33
2022-08-18T10:55:06.097Z,34.10
2022-08-18T10:57:35.989Z,34.28
2022-08-18T11:00:18.672Z,33.89
2022-08-18T11:03:30.082Z,34.25
2022-08-18T11:05:50.321Z,32.88
2022-08-18T11:08:20.581Z,34.31
2022-08-18T11:11:27.476Z,34.75
2022-08-18T11:13:58.046Z,35.17
2022-08-18T11:16:35.479Z,35.25
2022-08-18T11:19:18.826Z,35.10
2022-08-18T11:21:52.100Z,35.23
2022-08-18T11:24:24.357Z,35.21
2022-08-18T11:26:53.991Z,34.91
2022-08-18T11:29:29.611Z,34.92
2022-08-18T11:32:02.114Z,35.33
2022-08-18T11:34:37.685Z,35.58
2022-08-18T11:37:20.924Z,35.41
2022-08-18T11:39:49.808Z,35.15
2022-08-18T11:42:24.966Z,34.47
2022-08-18T11:44:55.079Z,34.22
2022-08-18T11:50:13.002Z,34.38
2022-08-18T11:52:49.538Z,33.44
2022-08-18T11:55:34.587Z,33.55
2022-08-18T11:58:02.748Z,34.18
2022-08-18T12:00:47.385Z,34.17
2022-08-18T12:03:28.533Z,34.25
2022-08-18T12:06:19.531Z,34.27
2022-08-18T12:09:11.558Z,33.97
2022-08-18T12:11:50.970Z,34.25
2022-08-18T12:14:32.380Z,33.64
2022-08-18T12:17:02.194Z,33.88
2022-08-18T12:19:31.164Z,33.98
2022-08-18T12:22:10.973Z,34.02
2022-08-18T12:24:39.459Z,34.06
2022-08-18T12:27:20.912Z,33.98
2022-08-18T12:29:49.733Z,34.27
2022-08-18T12:32:18.029Z,34.23
2022-08-18T12:35:09.157Z,34.29
2022-08-18T12:37:59.102Z,34.36
2022-08-18T12:40:23.262Z,34.33
2022-08-18T12:42:50.042Z,34.88
2022-08-18T12:45:16.753Z,35.22
2022-08-18T12:47:45.760Z,35.55
2022-08-18T12:50:12.607Z,34.95
2022-08-18T12:52:39.271Z,34.61
2022-08-18T12:55:21.467Z,34.06
2022-08-18T12:57:53.419Z,33.92
2022-08-18T13:00:27.815Z,34.34
2022-08-18T13:02:54.824Z,34.04
2022-08-18T13:05:27.553Z,34.67
2022-08-18T13:08:03.953Z,34.90
2022-08-18T13:10:43.245Z,34.89
2022-08-18T13:13:14.971Z,35.08
2022-08-18T13:15:44.541Z,35.61
2022-08-18T13:18:28.906Z,35.69
2022-08-18T13:21:00.292Z,34.66
2022-08-18T13:23:28.512Z,34.64
2022-08-18T13:26:01.652Z,34.01
2022-08-18T13:28:35.714Z,34.52
2022-08-18T13:31:05.441Z,35.17
2022-08-18T13:33:34.863Z,35.52
2022-08-18T13:36:20.244Z,34.96
2022-08-18T13:38:50.157Z,34.67
2022-08-18T13:41:17.020Z,35.80
2022-08-18T13:43:47.790Z,36.90
2022-08-18T13:46:18.853Z,38.48
2022-08-18T13:48:50.740Z,38.45
2022-08-18T13:51:23.631Z,38.57
2022-08-18T13:54:05.242Z,38.99
2022-08-18T13:56:37.487Z,39.20
2022-08-18T13:59:06.572Z,37.51
2022-08-18T14:01:44.509Z,37.47
2022-08-18T14:04:18.902Z,35.56
2022-08-18T14:06:57.478Z,35.24
2022-08-18T14:09:36.482Z,34.89
2022-08-18T14:12:16.076Z,35.01
2022-08-18T14:14:52.938Z,34.90
2022-08-18T14:17:22.214Z,33.52
2022-08-18T14:20:10.270Z,34.89
2022-08-18T14:22:56.003Z,34.69
2022-08-18T14:25:42.081Z,35.08
2022-08-18T14:28:09.392Z,34.66
2022-08-18T14:30:39.413Z,34.70
2022-08-18T14:33:11.567Z,34.82
2022-08-18T14:36:06.600Z,34.65
2022-08-18T14:38:25.459Z,34.58
2022-08-18T14:40:52.236Z,34.48
2022-08-18T14:43:25.046Z,34.74
2022-08-18T14:45:53.874Z,34.60
2022-08-18T14:48:27.407Z,35.61
2022-08-18T14:50:56.236Z,36.40
2022-08-18T14:53:28.789Z,36.75
2022-08-18T14:55:57.350Z,36.77
2022-08-18T14:58:29.164Z,36.16
2022-08-18T15:00:57.761Z,36.47
2022-08-18T15:03:28.345Z,36.08
2022-08-18T15:06:00.549Z,36.74
2022-08-18T15:08:28.308Z,36.78
2022-08-18T15:10:57.902Z,36.40
2022-08-18T15:13:26.502Z,36.80
2022-08-18T15:15:55.921Z,36.46
2022-08-18T15:18:29.618Z,36.36
2022-08-18T15:21:34.941Z,34.74
2022-08-18T15:24:22.351Z,34.97
2022-08-18T15:26:57.380Z,34.91
2022-08-18T15:29:28.052Z,34.86
2022-08-18T15:32:02.165Z,34.83
2022-08-18T15:34:46.959Z,34.59
2022-08-18T15:37:19.318Z,34.37
2022-08-18T15:39:47.409Z,34.71
2022-08-18T15:42:23.074Z,34.36
2022-08-18T15:44:50.409Z,34.41
2022-08-18T15:47:20.691Z,34.15
2022-08-18T15:49:48.206Z,34.09
2022-08-18T15:52:17.870Z,34.06
2022-08-18T15:54:50.436Z,34.14
2022-08-18T15:57:35.187Z,34.27
2022-08-18T16:00:05.495Z,33.94
2022-08-18T16:02:32.225Z,33.85
2022-08-18T16:05:09.125Z,33.88
2022-08-18T16:07:41.211Z,33.44
2022-08-18T16:10:12.871Z,33.34
2022-08-18T16:12:43.970Z,33.16
2022-08-18T16:15:15.607Z,33.32
2022-08-18T16:17:47.680Z,32.76
2022-08-18T16:20:14.975Z,32.96
2022-08-18T16:22:41.931Z,32.75
2022-08-18T16:25:09.624Z,32.81
2022-08-18T16:27:36.866Z,32.76
2022-08-18T16:30:06.939Z,32.68
2022-08-18T16:32:33.736Z,32.92
2022-08-18T16:35:00.314Z,33.29
2022-08-18T16:37:27.555Z,33.71
2022-08-18T16:39:54.850Z,34.64
2022-08-18T16:42:22.148Z,35.19
2022-08-18T16:44:49.163Z,34.96
2022-08-18T16:47:18.314Z,34.76
2022-08-18T16:49:48.556Z,34.27
2022-08-18T16:52:16.037Z,33.51
2022-08-18T16:54:45.914Z,33.37
2022-08-18T16:57:12.801Z,33.11
2022-08-18T16:59:58.469Z,32.49
2022-08-18T17:02:43.948Z,32.49
2022-08-18T17:05:12.095Z,32.32
2022-08-18T17:07:38.835Z,32.09
2022-08-18T17:10:06.183Z,31.55
2022-08-18T17:12:32.996Z,31.60
2022-08-18T17:14:59.706Z,31.44
2022-08-18T17:17:26.379Z,31.22
2022-08-18T17:19:53.915Z,31.02
2022-08-18T17:22:20.620Z,30.82
2022-08-18T17:24:49.894Z,30.55
2022-08-18T17:27:27.226Z,30.36
2022-08-18T17:30:00.720Z,30.20
2022-08-18T17:32:51.802Z,29.86
2022-08-18T17:35:29.462Z,29.76
2022-08-18T17:38:29.834Z,29.56
2022-08-18T17:40:58.078Z,29.39
2022-08-18T17:43:29.122Z,29.28
2022-08-18T17:46:00.366Z,28.75
2022-08-18T17:48:45.998Z,29.19
2022-08-18T17:51:34.870Z,28.53
2022-08-18T17:54:16.450Z,28.90
2022-08-18T17:56:52.654Z,28.71
2022-08-18T17:59:51.567Z,28.48
2022-08-18T18:02:29.988Z,28.27
2022-08-18T18:04:59.907Z,28.21
2022-08-18T18:07:38.505Z,28.22
2022-08-18T18:10:08.436Z,28.06
2022-08-18T18:12:36.788Z,27.65
2022-08-18T18:15:07.913Z,27.42
2022-08-18T18:17:38.419Z,27.50
2022-08-18T18:20:41.846Z,27.32
2022-08-18T18:23:16.780Z,26.90
2022-08-18T18:25:43.511Z,27.21
2022-08-18T18:28:37.698Z,26.99
2022-08-18T18:31:36.733Z,26.96
2022-08-18T18:34:23.174Z,26.73
2022-08-18T18:36:55.875Z,26.28
2022-08-18T18:39:33.995Z,26.59
2022-08-18T18:42:31.928Z,26.43
2022-08-18T18:45:01.718Z,26.30
2022-08-18T18:47:39.419Z,26.01
2022-08-18T18:50:35.918Z,26.12
2022-08-18T18:53:24.193Z,26.07
2022-08-18T18:56:25.535Z,26.07
2022-08-18T18:59:14.223Z,25.88
2022-08-18T19:02:33.146Z,25.59
2022-08-18T19:05:13.411Z,25.18
2022-08-18T19:08:06.725Z,25.34
2022-08-18T19:10:47.088Z,25.37
2022-08-18T19:13:33.389Z,24.87
2022-08-18T19:16:24.263Z,25.06
2022-08-18T19:18:57.545Z,25.46
2022-08-18T19:22:03.698Z,24.62
2022-08-18T19:24:38.812Z,25.22
2022-08-18T19:27:11.061Z,25.26
2022-08-18T19:29:42.167Z,25.18
2022-08-18T19:32:16.641Z,25.19
2022-08-18T19:34:51.425Z,25.09
2022-08-18T19:37:41.843Z,24.55
2022-08-18T19:40:24.152Z,24.81
2022-08-18T19:42:58.761Z,24.80
2022-08-18T19:45:50.253Z,24.77
2022-08-18T19:48:43.033Z,24.72
2022-08-18T19:51:27.564Z,24.62
2022-08-18T19:54:35.182Z,24.64
2022-08-18T19:57:12.531Z,24.64
2022-08-18T20:00:13.266Z,24.51
2022-08-18T20:03:18.678Z,24.39
2022-08-18T20:06:34.845Z,24.46
2022-08-18T20:09:29.369Z,24.22
2022-08-18T20:12:09.276Z,24.16
2022-08-18T20:14:39.355Z,24.16
2022-08-18T20:17:09.046Z,24.16
2022-08-18T20:19:44.020Z,24.25
2022-08-18T20:22:24.554Z,24.27
2022-08-18T20:25:05.719Z,24.09
2022-08-18T20:27:35.945Z,24.29
2022-08-18T20:30:32.896Z,24.33
2022-08-18T20:33:11.523Z,24.37
2022-08-18T20:35:46.936Z,24.48
2022-08-18T20:38:34.798Z,24.05
2022-08-18T20:41:30.133Z,24.32
2022-08-18T20:44:21.913Z,24.00
2022-08-18T20:47:33.780Z,24.06
2022-08-18T20:50:18.930Z,23.97
2022-08-18T20:53:00.685Z,23.78
2022-08-18T20:55:45.753Z,24.20
2022-08-18T20:58:17.446Z,24.38
2022-08-18T21:00:51.220Z,24.33
2022-08-18T21:03:24.013Z,24.37
2022-08-18T21:05:58.828Z,24.30
2022-08-18T21:08:31.744Z,24.40
2022-08-18T21:11:34.251Z,24.39
2022-08-18T21:14:04.060Z,24.38
2022-08-18T21:16:45.127Z,24.35
2022-08-18T21:19:25.684Z,24.14
2022-08-18T21:22:00.323Z,24.45
2022-08-18T21:24:36.319Z,24.08
2022-08-18T21:27:04.498Z,24.34
2022-08-18T21:29:49.005Z,23.89
2022-08-18T21:32:31.415Z,23.56
2022-08-18T21:35:02.041Z,23.81
2022-08-18T21:37:33.780Z,23.34
2022-08-18T21:40:04.609Z,23.33
2022-08-18T21:42:37.474Z,23.41
2022-08-18T21:45:04.573Z,23.33
2022-08-18T21:47:33.966Z,23.30
2022-08-18T21:50:09.449Z,23.39
2022-08-18T21:52:51.722Z,23.27
2022-08-18T21:55:26.879Z,23.31
2022-08-18T21:58:14.056Z,23.26
2022-08-18T22:01:02.308Z,23.10
2022-08-18T22:03:29.058Z,23.06
2022-08-18T22:06:25.234Z,23.05
2022-08-18T22:09:00.175Z,23.01
2022-08-18T22:12:00.339Z,23.00
2022-08-18T22:14:30.418Z,23.13
2022-08-18T22:17:25.940Z,23.04
2022-08-18T22:19:53.180Z,22.91
2022-08-18T22:22:40.510Z,22.87
2022-08-18T22:25:11.040Z,22.87
2022-08-18T22:27:37.935Z,22.75
2022-08-18T22:30:05.549Z,22.79
2022-08-18T22:32:35.523Z,22.85
2022-08-18T22:35:04.032Z,22.81
2022-08-18T22:37:50.114Z,22.82
2022-08-18T22:40:22.054Z,22.76
2022-08-18T22:42:48.982Z,22.75
2022-08-18T22:45:15.822Z,22.65
2022-08-18T22:47:44.791Z,22.70
2022-08-18T22:50:13.248Z,22.60
2022-08-18T22:52:46.654Z,22.46
2022-08-18T22:55:14.634Z,22.42
2022-08-18T22:57:44.023Z,22.22
2022-08-18T23:00:18.128Z,22.16
2022-08-18T23:02:47.814Z,22.06
2022-08-18T23:05:15.146Z,22.12
2022-08-18T23:07:42.667Z,21.90
2022-08-18T23:10:13.757Z,21.85
2022-08-18T23:12:43.069Z,21.76
2022-08-18T23:15:11.383Z,21.07
2022-08-18T23:17:39.459Z,21.57
2022-08-18T23:20:11.747Z,21.57
2022-08-18T23:22:39.304Z,21.58
2022-08-18T23:25:08.936Z,21.52
2022-08-18T23:27:36.588Z,21.43
2022-08-18T23:30:04.948Z,21.33
2022-08-18T23:32:32.095Z,20.98
2022-08-18T23:34:59.491Z,21.19
2022-08-18T23:37:26.556Z,21.42
2022-08-18T23:39:53.218Z,21.17
2022-08-18T23:42:23.019Z,21.20
2022-08-18T23:44:50.014Z,21.45
2022-08-18T23:47:18.555Z,21.00
2022-08-18T23:49:45.190Z,21.40
2022-08-18T23:52:11.895Z,21.37
2022-08-18T23:54:39.129Z,20.87
2022-08-18T23:57:05.903Z,21.41
2022-08-18T23:59:32.584Z,21.30
